sensor_id;sensor_type;location;lat;lon;timestamp;pressure;altitude;pressure_sealevel;temperature;humidity
11198;BME280;5655;48.744;9.162;2022-12-17T00:02:23;96325.06;;;-1.88;100.00
11198;BME280;5655;48.744;9.162;2022-12-17T00:05:07;96328.75;;;-1.89;100.00
11198;BME280;5655;48.744;9.162;2022-12-17T00:08:00;96335.97;;;-1.44;100.00
11198;BME280;5655;48.744;9.162;2022-12-17T00:10:44;96346.47;;;-1.81;100.00
11198;BME280;5655;48.744;9.162;2022-12-17T00:13:28;96343.94;;;-1.86;100.00
11198;BME280;5655;48.744;9.162;2022-12-17T00:16:12;96339.56;;;-2.14;100.00
11198;BME280;5655;48.744;9.162;2022-12-17T00:18:56;96335.38;;;-2.15;100.00
11198;BME280;5655;48.744;9.162;2022-12-17T00:21:39;96342.09;;;-2.28;100.00
11198;BME280;5655;48.744;9.162;2022-12-17T00:24:23;96341.41;;;-2.15;100.00
11198;BME280;5655;48.744;9.162;2022-12-17T00:27:07;96345.03;;;-2.30;100.00
11198;BME280;5655;48.744;9.162;2022-12-17T00:29:51;96360.75;;;-2.30;100.00
11198;BME280;5655;48.744;9.162;2022-12-17T00:32:35;96345.56;;;-2.33;100.00
11198;BME280;5655;48.744;9.162;2022-12-17T00:35:19;96355.56;;;-2.35;100.00
11198;BME280;5655;48.744;9.162;2022-12-17T00:38:03;96362.75;;;-2.45;100.00
11198;BME280;5655;48.744;9.162;2022-12-17T00:40:51;96361.00;;;-2.31;100.00
11198;BME280;5655;48.744;9.162;2022-12-17T00:43:35;96364.84;;;-2.23;100.00
11198;BME280;5655;48.744;9.162;2022-12-17T00:46:19;96364.38;;;-2.07;100.00
11198;BME280;5655;48.744;9.162;2022-12-17T00:49:03;96373.91;;;-1.92;100.00
11198;BME280;5655;48.744;9.162;2022-12-17T00:51:47;96375.41;;;-1.86;100.00
11198;BME280;5655;48.744;9.162;2022-12-17T00:54:31;96386.97;;;-2.58;100.00
11198;BME280;5655;48.744;9.162;2022-12-17T00:57:15;96377.78;;;-2.32;100.00
11198;BME280;5655;48.744;9.162;2022-12-17T00:59:58;96386.44;;;-2.32;100.00
11198;BME280;5655;48.744;9.162;2022-12-17T01:02:42;96389.84;;;-2.07;100.00
11198;BME280;5655;48.744;9.162;2022-12-17T01:05:26;96390.38;;;-2.10;100.00
11198;BME280;5655;48.744;9.162;2022-12-17T01:08:13;96395.19;;;-2.17;100.00
11198;BME280;5655;48.744;9.162;2022-12-17T01:11:03;96397.13;;;-2.04;100.00
11198;BME280;5655;48.744;9.162;2022-12-17T01:13:47;96399.38;;;-2.16;100.00
11198;BME280;5655;48.744;9.162;2022-12-17T01:16:31;96402.22;;;-2.13;100.00
11198;BME280;5655;48.744;9.162;2022-12-17T01:19:16;96405.91;;;-2.14;100.00
11198;BME280;5655;48.744;9.162;2022-12-17T01:21:59;96403.06;;;-2.17;100.00
11198;BME280;5655;48.744;9.162;2022-12-17T01:24:43;96404.13;;;-2.18;100.00
11198;BME280;5655;48.744;9.162;2022-12-17T01:27:27;96401.75;;;-2.20;100.00
11198;BME280;5655;48.744;9.162;2022-12-17T01:30:11;96403.69;;;-2.25;100.00
11198;BME280;5655;48.744;9.162;2022-12-17T01:33:03;96402.31;;;-1.99;100.00
11198;BME280;5655;48.744;9.162;2022-12-17T01:35:48;96400.53;;;-2.28;100.00
11198;BME280;5655;48.744;9.162;2022-12-17T01:38:32;96400.44;;;-2.41;100.00
11198;BME280;5655;48.744;9.162;2022-12-17T01:41:16;96405.44;;;-2.45;100.00
11198;BME280;5655;48.744;9.162;2022-12-17T01:47:32;96424.31;;;-2.43;100.00
11198;BME280;5655;48.744;9.162;2022-12-17T01:50:17;96423.78;;;-2.45;100.00
11198;BME280;5655;48.744;9.162;2022-12-17T01:53:03;96422.69;;;-2.39;100.00
11198;BME280;5655;48.744;9.162;2022-12-17T01:55:48;96422.56;;;-2.52;100.00
11198;BME280;5655;48.744;9.162;2022-12-17T01:58:34;96428.53;;;-2.47;100.00
11198;BME280;5655;48.744;9.162;2022-12-17T02:01:18;96434.97;;;-2.63;100.00
11198;BME280;5655;48.744;9.162;2022-12-17T02:04:02;96439.44;;;-2.63;100.00
11198;BME280;5655;48.744;9.162;2022-12-17T02:06:56;96452.13;;;-2.47;100.00
11198;BME280;5655;48.744;9.162;2022-12-17T02:10:07;96449.38;;;-2.37;100.00
11198;BME280;5655;48.744;9.162;2022-12-17T02:13:04;96452.16;;;-2.52;100.00
11198;BME280;5655;48.744;9.162;2022-12-17T02:15:55;96451.72;;;-2.59;100.00
11198;BME280;5655;48.744;9.162;2022-12-17T02:19:23;96466.38;;;-2.58;100.00
11198;BME280;5655;48.744;9.162;2022-12-17T02:22:26;96457.03;;;-2.69;100.00
11198;BME280;5655;48.744;9.162;2022-12-17T02:25:29;96464.88;;;-2.64;100.00
11198;BME280;5655;48.744;9.162;2022-12-17T02:28:15;96461.91;;;-3.20;100.00
11198;BME280;5655;48.744;9.162;2022-12-17T02:30:59;96463.31;;;-2.99;100.00
11198;BME280;5655;48.744;9.162;2022-12-17T02:33:43;96463.09;;;-3.02;100.00
11198;BME280;5655;48.744;9.162;2022-12-17T02:36:28;96462.53;;;-2.99;100.00
11198;BME280;5655;48.744;9.162;2022-12-17T02:39:12;96468.38;;;-3.12;100.00
11198;BME280;5655;48.744;9.162;2022-12-17T02:41:56;96472.53;;;-3.06;100.00
11198;BME280;5655;48.744;9.162;2022-12-17T02:44:41;96476.22;;;-3.07;100.00
11198;BME280;5655;48.744;9.162;2022-12-17T02:47:27;96483.00;;;-3.06;100.00
11198;BME280;5655;48.744;9.162;2022-12-17T02:50:11;96484.88;;;-3.56;100.00
11198;BME280;5655;48.744;9.162;2022-12-17T02:52:58;96488.03;;;-3.15;100.00
11198;BME280;5655;48.744;9.162;2022-12-17T02:55:42;96481.13;;;-3.45;100.00
11198;BME280;5655;48.744;9.162;2022-12-17T02:58:26;96486.63;;;-3.41;100.00
11198;BME280;5655;48.744;9.162;2022-12-17T03:01:10;96482.09;;;-3.31;100.00
11198;BME280;5655;48.744;9.162;2022-12-17T03:03:54;96486.56;;;-3.85;100.00
11198;BME280;5655;48.744;9.162;2022-12-17T03:06:38;96497.41;;;-3.58;100.00
11198;BME280;5655;48.744;9.162;2022-12-17T03:09:22;96497.91;;;-3.51;100.00
11198;BME280;5655;48.744;9.162;2022-12-17T03:12:06;96493.75;;;-3.57;100.00
11198;BME280;5655;48.744;9.162;2022-12-17T03:14:50;96495.81;;;-3.49;100.00
11198;BME280;5655;48.744;9.162;2022-12-17T03:17:34;96502.66;;;-3.58;100.00
11198;BME280;5655;48.744;9.162;2022-12-17T03:20:17;96506.81;;;-3.52;100.00
11198;BME280;5655;48.744;9.162;2022-12-17T03:23:07;96517.13;;;-3.22;100.00
11198;BME280;5655;48.744;9.162;2022-12-17T03:26:00;96518.19;;;-3.28;100.00
11198;BME280;5655;48.744;9.162;2022-12-17T03:28:45;96523.03;;;-3.50;100.00
11198;BME280;5655;48.744;9.162;2022-12-17T03:31:29;96527.75;;;-3.52;100.00
11198;BME280;5655;48.744;9.162;2022-12-17T03:34:13;96520.69;;;-3.56;100.00
11198;BME280;5655;48.744;9.162;2022-12-17T03:36:57;96528.78;;;-3.53;100.00
11198;BME280;5655;48.744;9.162;2022-12-17T03:39:41;96528.03;;;-3.58;100.00
11198;BME280;5655;48.744;9.162;2022-12-17T03:42:25;96517.50;;;-3.48;100.00
11198;BME280;5655;48.744;9.162;2022-12-17T03:45:22;96517.81;;;-3.55;100.00
11198;BME280;5655;48.744;9.162;2022-12-17T03:48:11;96518.94;;;-3.17;100.00
11198;BME280;5655;48.744;9.162;2022-12-17T03:50:56;96527.78;;;-3.62;100.00
11198;BME280;5655;48.744;9.162;2022-12-17T03:53:40;96528.38;;;-3.21;100.00
11198;BME280;5655;48.744;9.162;2022-12-17T03:56:25;96523.59;;;-3.09;100.00
11198;BME280;5655;48.744;9.162;2022-12-17T03:59:09;96525.13;;;-3.03;100.00
11198;BME280;5655;48.744;9.162;2022-12-17T04:01:53;96520.69;;;-3.02;100.00
11198;BME280;5655;48.744;9.162;2022-12-17T04:04:37;96524.34;;;-3.03;100.00
11198;BME280;5655;48.744;9.162;2022-12-17T04:07:21;96520.69;;;-3.02;100.00
11198;BME280;5655;48.744;9.162;2022-12-17T04:10:05;96518.50;;;-3.34;100.00
11198;BME280;5655;48.744;9.162;2022-12-17T04:12:49;96521.22;;;-3.10;100.00
11198;BME280;5655;48.744;9.162;2022-12-17T04:15:33;96522.06;;;-3.15;100.00
11198;BME280;5655;48.744;9.162;2022-12-17T04:18:17;96540.19;;;-3.24;100.00
11198;BME280;5655;48.744;9.162;2022-12-17T04:21:01;96534.06;;;-3.14;100.00
11198;BME280;5655;48.744;9.162;2022-12-17T04:23:45;96539.97;;;-3.37;100.00
11198;BME280;5655;48.744;9.162;2022-12-17T04:26:29;96540.69;;;-3.27;100.00
11198;BME280;5655;48.744;9.162;2022-12-17T04:29:13;96546.59;;;-3.50;100.00
11198;BME280;5655;48.744;9.162;2022-12-17T04:31:57;96547.31;;;-3.44;100.00
11198;BME280;5655;48.744;9.162;2022-12-17T04:34:41;96549.25;;;-3.65;100.00
11198;BME280;5655;48.744;9.162;2022-12-17T04:37:24;96552.91;;;-3.07;100.00
11198;BME280;5655;48.744;9.162;2022-12-17T04:40:10;96562.19;;;-3.30;100.00
11198;BME280;5655;48.744;9.162;2022-12-17T04:42:54;96557.53;;;-3.48;100.00
11198;BME280;5655;48.744;9.162;2022-12-17T04:45:38;96559.22;;;-3.72;100.00
11198;BME280;5655;48.744;9.162;2022-12-17T04:48:21;96568.56;;;-3.56;100.00
11198;BME280;5655;48.744;9.162;2022-12-17T04:51:05;96566.38;;;-3.34;100.00
11198;BME280;5655;48.744;9.162;2022-12-17T04:53:49;96577.03;;;-3.84;100.00
11198;BME280;5655;48.744;9.162;2022-12-17T04:56:33;96584.13;;;-3.26;100.00
11198;BME280;5655;48.744;9.162;2022-12-17T04:59:17;96574.50;;;-3.35;100.00
11198;BME280;5655;48.744;9.162;2022-12-17T05:02:01;96577.97;;;-3.55;100.00
11198;BME280;5655;48.744;9.162;2022-12-17T05:04:45;96576.88;;;-3.39;100.00
11198;BME280;5655;48.744;9.162;2022-12-17T05:07:29;96590.66;;;-3.23;100.00
11198;BME280;5655;48.744;9.162;2022-12-17T05:10:13;96591.88;;;-3.05;100.00
11198;BME280;5655;48.744;9.162;2022-12-17T05:13:00;96591.31;;;-2.97;100.00
11198;BME280;5655;48.744;9.162;2022-12-17T05:15:45;96594.88;;;-3.32;100.00
11198;BME280;5655;48.744;9.162;2022-12-17T05:18:30;96595.44;;;-2.81;100.00
11198;BME280;5655;48.744;9.162;2022-12-17T05:21:15;96606.00;;;-3.01;100.00
11198;BME280;5655;48.744;9.162;2022-12-17T05:23:59;96608.22;;;-3.24;100.00
11198;BME280;5655;48.744;9.162;2022-12-17T05:26:43;96608.16;;;-3.13;100.00
11198;BME280;5655;48.744;9.162;2022-12-17T05:29:27;96605.16;;;-2.92;100.00
11198;BME280;5655;48.744;9.162;2022-12-17T05:32:11;96620.22;;;-3.17;100.00
11198;BME280;5655;48.744;9.162;2022-12-17T05:34:55;96612.44;;;-3.38;100.00
11198;BME280;5655;48.744;9.162;2022-12-17T05:37:39;96619.22;;;-3.32;100.00
11198;BME280;5655;48.744;9.162;2022-12-17T05:40:23;96620.69;;;-3.05;100.00
11198;BME280;5655;48.744;9.162;2022-12-17T05:43:10;96623.16;;;-2.80;100.00
11198;BME280;5655;48.744;9.162;2022-12-17T05:45:54;96614.94;;;-3.07;100.00
11198;BME280;5655;48.744;9.162;2022-12-17T05:48:38;96616.09;;;-3.29;100.00
11198;BME280;5655;48.744;9.162;2022-12-17T05:51:42;96624.94;;;-3.19;100.00
11198;BME280;5655;48.744;9.162;2022-12-17T05:54:25;96631.34;;;-3.51;100.00
11198;BME280;5655;48.744;9.162;2022-12-17T05:57:09;96629.03;;;-3.88;100.00
11198;BME280;5655;48.744;9.162;2022-12-17T05:59:53;96644.63;;;-3.37;100.00
11198;BME280;5655;48.744;9.162;2022-12-17T06:02:37;96630.81;;;-3.53;100.00
11198;BME280;5655;48.744;9.162;2022-12-17T06:05:21;96652.50;;;-3.52;100.00
11198;BME280;5655;48.744;9.162;2022-12-17T06:08:06;96644.41;;;-3.51;100.00
11198;BME280;5655;48.744;9.162;2022-12-17T06:10:50;96650.19;;;-3.59;100.00
11198;BME280;5655;48.744;9.162;2022-12-17T06:13:54;96650.19;;;-3.59;100.00
11198;BME280;5655;48.744;9.162;2022-12-17T06:16:37;96655.44;;;-3.64;100.00
11198;BME280;5655;48.744;9.162;2022-12-17T06:19:21;96660.13;;;-3.56;100.00
11198;BME280;5655;48.744;9.162;2022-12-17T06:22:05;96652.34;;;-4.01;100.00
11198;BME280;5655;48.744;9.162;2022-12-17T06:24:49;96656.72;;;-3.67;100.00
11198;BME280;5655;48.744;9.162;2022-12-17T06:27:32;96652.81;;;-3.59;100.00
11198;BME280;5655;48.744;9.162;2022-12-17T06:30:16;96646.00;;;-3.55;100.00
11198;BME280;5655;48.744;9.162;2022-12-17T06:33:05;96657.44;;;-3.36;100.00
11198;BME280;5655;48.744;9.162;2022-12-17T06:35:51;96660.41;;;-3.68;100.00
11198;BME280;5655;48.744;9.162;2022-12-17T06:38:35;96659.91;;;-3.80;100.00
11198;BME280;5655;48.744;9.162;2022-12-17T06:41:19;96658.09;;;-3.89;100.00
11198;BME280;5655;48.744;9.162;2022-12-17T06:44:03;96670.06;;;-3.68;100.00
11198;BME280;5655;48.744;9.162;2022-12-17T06:46:47;96673.22;;;-3.76;100.00
11198;BME280;5655;48.744;9.162;2022-12-17T06:49:31;96680.56;;;-3.93;100.00
11198;BME280;5655;48.744;9.162;2022-12-17T06:52:15;96682.41;;;-3.94;100.00
11198;BME280;5655;48.744;9.162;2022-12-17T06:54:59;96680.03;;;-3.95;100.00
11198;BME280;5655;48.744;9.162;2022-12-17T06:57:43;96680.03;;;-4.05;100.00
11198;BME280;5655;48.744;9.162;2022-12-17T07:00:27;96675.31;;;-4.29;100.00
11198;BME280;5655;48.744;9.162;2022-12-17T07:03:11;96683.94;;;-4.13;100.00
11198;BME280;5655;48.744;9.162;2022-12-17T07:05:55;96690.50;;;-4.16;100.00
11198;BME280;5655;48.744;9.162;2022-12-17T07:08:39;96688.66;;;-4.00;100.00
11198;BME280;5655;48.744;9.162;2022-12-17T07:11:23;96691.56;;;-4.01;100.00
11198;BME280;5655;48.744;9.162;2022-12-17T07:14:07;96702.00;;;-4.01;100.00
11198;BME280;5655;48.744;9.162;2022-12-17T07:16:51;96710.31;;;-4.40;100.00
11198;BME280;5655;48.744;9.162;2022-12-17T07:19:35;96708.78;;;-4.21;100.00
11198;BME280;5655;48.744;9.162;2022-12-17T07:22:19;96705.41;;;-4.06;100.00
11198;BME280;5655;48.744;9.162;2022-12-17T07:25:03;96710.63;;;-3.96;100.00
11198;BME280;5655;48.744;9.162;2022-12-17T07:27:53;96713.50;;;-3.87;100.00
11198;BME280;5655;48.744;9.162;2022-12-17T07:30:37;96724.44;;;-4.36;100.00
11198;BME280;5655;48.744;9.162;2022-12-17T07:33:21;96728.38;;;-4.18;100.00
11198;BME280;5655;48.744;9.162;2022-12-17T07:36:05;96742.00;;;-3.86;100.00
11198;BME280;5655;48.744;9.162;2022-12-17T07:38:49;96752.94;;;-4.19;100.00
11198;BME280;5655;48.744;9.162;2022-12-17T07:41:33;96749.00;;;-4.22;100.00
11198;BME280;5655;48.744;9.162;2022-12-17T07:44:17;96750.03;;;-4.23;100.00
11198;BME280;5655;48.744;9.162;2022-12-17T07:47:01;96752.16;;;-4.15;100.00
11198;BME280;5655;48.744;9.162;2022-12-17T07:49:45;96753.75;;;-3.98;100.00
11198;BME280;5655;48.744;9.162;2022-12-17T07:52:29;96753.72;;;-4.29;100.00
11198;BME280;5655;48.744;9.162;2022-12-17T07:55:13;96760.50;;;-4.28;100.00
11198;BME280;5655;48.744;9.162;2022-12-17T07:58:02;96761.88;;;-3.80;100.00
11198;BME280;5655;48.744;9.162;2022-12-17T08:00:46;96772.53;;;-4.17;100.00
11198;BME280;5655;48.744;9.162;2022-12-17T08:03:30;96782.94;;;-4.37;100.00
11198;BME280;5655;48.744;9.162;2022-12-17T08:06:14;96777.75;;;-4.22;100.00
11198;BME280;5655;48.744;9.162;2022-12-17T08:08:58;96776.25;;;-3.97;100.00
11198;BME280;5655;48.744;9.162;2022-12-17T08:11:42;96787.19;;;-4.00;100.00
11198;BME280;5655;48.744;9.162;2022-12-17T08:14:26;96785.03;;;-4.39;100.00
11198;BME280;5655;48.744;9.162;2022-12-17T08:17:09;96783.53;;;-4.15;100.00
11198;BME280;5655;48.744;9.162;2022-12-17T08:19:54;96795.56;;;-3.98;100.00
11198;BME280;5655;48.744;9.162;2022-12-17T08:22:37;96799.66;;;-4.38;100.00
11198;BME280;5655;48.744;9.162;2022-12-17T08:25:22;96796.22;;;-4.43;100.00
11198;BME280;5655;48.744;9.162;2022-12-17T08:28:06;96795.09;;;-3.80;100.00
11198;BME280;5655;48.744;9.162;2022-12-17T08:30:50;96801.84;;;-3.99;100.00
11198;BME280;5655;48.744;9.162;2022-12-17T08:33:34;96795.59;;;-3.68;100.00
11198;BME280;5655;48.744;9.162;2022-12-17T08:36:18;96802.41;;;-3.67;100.00
11198;BME280;5655;48.744;9.162;2022-12-17T08:39:02;96812.81;;;-3.92;100.00
11198;BME280;5655;48.744;9.162;2022-12-17T08:41:46;96812.19;;;-4.35;100.00
11198;BME280;5655;48.744;9.162;2022-12-17T08:44:31;96822.50;;;-3.88;100.00
11198;BME280;5655;48.744;9.162;2022-12-17T08:47:15;96822.22;;;-4.12;100.00
11198;BME280;5655;48.744;9.162;2022-12-17T08:49:58;96828.50;;;-3.92;100.00
11198;BME280;5655;48.744;9.162;2022-12-17T08:52:42;96826.88;;;-4.24;100.00
11198;BME280;5655;48.744;9.162;2022-12-17T08:55:26;96837.94;;;-3.86;100.00
11198;BME280;5655;48.744;9.162;2022-12-17T08:58:11;96839.84;;;-4.49;100.00
11198;BME280;5655;48.744;9.162;2022-12-17T09:00:57;96847.81;;;-4.08;100.00
11198;BME280;5655;48.744;9.162;2022-12-17T09:03:42;96844.16;;;-4.07;100.00
11198;BME280;5655;48.744;9.162;2022-12-17T09:06:25;96844.66;;;-4.21;100.00
11198;BME280;5655;48.744;9.162;2022-12-17T09:09:09;96852.03;;;-4.02;100.00
11198;BME280;5655;48.744;9.162;2022-12-17T09:11:53;96854.63;;;-4.07;100.00
11198;BME280;5655;48.744;9.162;2022-12-17T09:14:37;96854.19;;;-3.64;100.00
11198;BME280;5655;48.744;9.162;2022-12-17T09:17:21;96849.41;;;-4.07;100.00
11198;BME280;5655;48.744;9.162;2022-12-17T09:20:05;96853.03;;;-4.19;100.00
11198;BME280;5655;48.744;9.162;2022-12-17T09:22:49;96843.72;;;-3.74;100.00
11198;BME280;5655;48.744;9.162;2022-12-17T09:25:33;96856.00;;;-3.70;100.00
11198;BME280;5655;48.744;9.162;2022-12-17T09:28:16;96867.78;;;-3.72;100.00
11198;BME280;5655;48.744;9.162;2022-12-17T09:31:00;96860.72;;;-3.67;100.00
11198;BME280;5655;48.744;9.162;2022-12-17T09:33:45;96876.94;;;-3.70;100.00
11198;BME280;5655;48.744;9.162;2022-12-17T09:36:29;96869.91;;;-3.59;100.00
11198;BME280;5655;48.744;9.162;2022-12-17T09:39:13;96872.47;;;-3.74;100.00
11198;BME280;5655;48.744;9.162;2022-12-17T09:42:18;96869.91;;;-3.13;100.00
11198;BME280;5655;48.744;9.162;2022-12-17T09:51:22;96862.06;;;-3.59;100.00
11198;BME280;5655;48.744;9.162;2022-12-17T09:54:36;96865.19;;;-2.96;100.00
11198;BME280;5655;48.744;9.162;2022-12-17T09:57:27;96864.69;;;-3.29;100.00
11198;BME280;5655;48.744;9.162;2022-12-17T10:00:20;96868.34;;;-2.99;100.00
11198;BME280;5655;48.744;9.162;2022-12-17T10:03:17;96867.28;;;-3.08;100.00
11198;BME280;5655;48.744;9.162;2022-12-17T10:06:14;96866.25;;;-3.02;100.00
11198;BME280;5655;48.744;9.162;2022-12-17T10:09:02;96864.16;;;-3.31;100.00
11198;BME280;5655;48.744;9.162;2022-12-17T10:11:49;96869.91;;;-3.44;100.00
11198;BME280;5655;48.744;9.162;2022-12-17T10:14:33;96871.47;;;-3.53;100.00
11198;BME280;5655;48.744;9.162;2022-12-17T10:17:22;96874.09;;;-3.48;100.00
11198;BME280;5655;48.744;9.162;2022-12-17T10:20:20;96869.41;;;-3.46;100.00
11198;BME280;5655;48.744;9.162;2022-12-17T10:23:04;96863.34;;;-3.56;100.00
11198;BME280;5655;48.744;9.162;2022-12-17T10:25:55;96868.34;;;-3.09;100.00
11198;BME280;5655;48.744;9.162;2022-12-17T10:28:40;96863.63;;;-3.43;100.00
11198;BME280;5655;48.744;9.162;2022-12-17T10:31:29;96877.22;;;-2.85;100.00
11198;BME280;5655;48.744;9.162;2022-12-17T10:34:19;96874.09;;;-3.28;100.00
11198;BME280;5655;48.744;9.162;2022-12-17T10:37:03;96876.16;;;-3.45;100.00
11198;BME280;5655;48.744;9.162;2022-12-17T10:39:59;96881.69;;;-3.26;100.00
11198;BME280;5655;48.744;9.162;2022-12-17T10:42:44;96878.25;;;-3.62;100.00
11198;BME280;5655;48.744;9.162;2022-12-17T10:45:33;96875.16;;;-3.54;100.00
11198;BME280;5655;48.744;9.162;2022-12-17T10:48:22;96875.41;;;-3.30;100.00
11198;BME280;5655;48.744;9.162;2022-12-17T10:51:36;96865.72;;;-3.30;100.00
11198;BME280;5655;48.744;9.162;2022-12-17T10:54:24;96870.94;;;-3.40;100.00
11198;BME280;5655;48.744;9.162;2022-12-17T10:57:25;96868.34;;;-3.14;100.00
11198;BME280;5655;48.744;9.162;2022-12-17T11:00:20;96877.25;;;-3.46;100.00
11198;BME280;5655;48.744;9.162;2022-12-17T11:03:05;96880.41;;;-3.24;100.00
11198;BME280;5655;48.744;9.162;2022-12-17T11:05:53;96882.50;;;-3.21;100.00
11198;BME280;5655;48.744;9.162;2022-12-17T11:08:38;96878.81;;;-2.94;100.00
11198;BME280;5655;48.744;9.162;2022-12-17T11:11:24;96876.72;;;-3.12;100.00
11198;BME280;5655;48.744;9.162;2022-12-17T11:14:25;96869.66;;;-3.22;100.00
11198;BME280;5655;48.744;9.162;2022-12-17T11:17:13;96874.06;;;-2.72;100.00
11198;BME280;5655;48.744;9.162;2022-12-17T11:20:02;96892.69;;;-2.99;100.00
11198;BME280;5655;48.744;9.162;2022-12-17T11:22:52;96889.28;;;-3.04;100.00
11198;BME280;5655;48.744;9.162;2022-12-17T11:25:56;96891.13;;;-2.90;100.00
11198;BME280;5655;48.744;9.162;2022-12-17T11:28:42;96901.34;;;-3.24;100.00
11198;BME280;5655;48.744;9.162;2022-12-17T11:37:31;96904.75;;;-2.98;100.00
11198;BME280;5655;48.744;9.162;2022-12-17T11:40:41;96897.66;;;-3.12;100.00
11198;BME280;5655;48.744;9.162;2022-12-17T11:43:36;96905.53;;;-3.07;100.00
11198;BME280;5655;48.744;9.162;2022-12-17T11:52:57;96898.97;;;-2.95;100.00
11198;BME280;5655;48.744;9.162;2022-12-17T11:56:25;96892.41;;;-2.92;100.00
11198;BME280;5655;48.744;9.162;2022-12-17T12:02:40;96888.22;;;-2.68;100.00
11198;BME280;5655;48.744;9.162;2022-12-17T12:08:30;96895.28;;;-2.84;100.00
11198;BME280;5655;48.744;9.162;2022-12-17T12:11:36;96902.22;;;-2.23;100.00
11198;BME280;5655;48.744;9.162;2022-12-17T12:14:58;96898.63;;;-2.48;100.00
11198;BME280;5655;48.744;9.162;2022-12-17T12:17:51;96890.84;;;-2.83;100.00
11198;BME280;5655;48.744;9.162;2022-12-17T12:30:02;96887.19;;;-3.02;100.00
11198;BME280;5655;48.744;9.162;2022-12-17T12:35:58;96892.66;;;-2.79;100.00
11198;BME280;5655;48.744;9.162;2022-12-17T12:38:50;96897.13;;;-2.99;100.00
11198;BME280;5655;48.744;9.162;2022-12-17T12:41:53;96891.91;;;-2.99;100.00
11198;BME280;5655;48.744;9.162;2022-12-17T12:44:54;96892.66;;;-2.84;100.00
11198;BME280;5655;48.744;9.162;2022-12-17T12:57:31;96890.81;;;-2.73;100.00
11198;BME280;5655;48.744;9.162;2022-12-17T13:00:37;96878.72;;;-2.49;100.00
11198;BME280;5655;48.744;9.162;2022-12-17T13:03:39;96890.53;;;-2.56;100.00
11198;BME280;5655;48.744;9.162;2022-12-17T13:06:41;96895.53;;;-2.60;100.00
11198;BME280;5655;48.744;9.162;2022-12-17T13:11:48;96890.25;;;-2.50;100.00
11198;BME280;5655;48.744;9.162;2022-12-17T13:14:21;96881.84;;;-2.42;100.00
11198;BME280;5655;48.744;9.162;2022-12-17T13:16:54;96888.88;;;-2.27;100.00
11198;BME280;5655;48.744;9.162;2022-12-17T13:24:49;96889.75;;;-1.83;100.00
11198;BME280;5655;48.744;9.162;2022-12-17T13:33:13;96895.97;;;-1.68;100.00
11198;BME280;5655;48.744;9.162;2022-12-17T13:36:09;96892.16;;;-1.91;100.00
11198;BME280;5655;48.744;9.162;2022-12-17T13:38:44;96901.59;;;-1.95;100.00
11198;BME280;5655;48.744;9.162;2022-12-17T13:41:15;96889.00;;;-1.93;100.00
11198;BME280;5655;48.744;9.162;2022-12-17T13:43:51;96887.78;;;-1.62;100.00
11198;BME280;5655;48.744;9.162;2022-12-17T13:49:00;96887.38;;;-1.84;100.00
11198;BME280;5655;48.744;9.162;2022-12-17T13:51:29;96889.31;;;-2.00;100.00
11198;BME280;5655;48.744;9.162;2022-12-17T13:54:01;96892.47;;;-2.08;100.00
11198;BME280;5655;48.744;9.162;2022-12-17T13:56:30;96889.00;;;-1.93;100.00
11198;BME280;5655;48.744;9.162;2022-12-17T13:58:57;96893.72;;;-1.90;100.00
11198;BME280;5655;48.744;9.162;2022-12-17T14:01:23;96895.72;;;-2.36;100.00
11198;BME280;5655;48.744;9.162;2022-12-17T14:04:00;96902.53;;;-2.45;100.00
11198;BME280;5655;48.744;9.162;2022-12-17T14:06:31;96906.25;;;-2.66;100.00
11198;BME280;5655;48.744;9.162;2022-12-17T14:08:57;96905.50;;;-2.77;100.00
11198;BME280;5655;48.744;9.162;2022-12-17T14:11:23;96909.69;;;-2.81;100.00
11198;BME280;5655;48.744;9.162;2022-12-17T14:14:35;96904.44;;;-2.61;100.00
11198;BME280;5655;48.744;9.162;2022-12-17T14:17:05;96916.53;;;-2.85;100.00
11198;BME280;5655;48.744;9.162;2022-12-17T14:19:38;96917.56;;;-2.86;100.00
11198;BME280;5655;48.744;9.162;2022-12-17T14:22:04;96915.44;;;-2.84;100.00
11198;BME280;5655;48.744;9.162;2022-12-17T14:24:29;96918.63;;;-3.02;100.00
11198;BME280;5655;48.744;9.162;2022-12-17T14:26:58;96923.56;;;-2.96;100.00
11198;BME280;5655;48.744;9.162;2022-12-17T14:29:26;96924.38;;;-3.15;100.00
11198;BME280;5655;48.744;9.162;2022-12-17T14:32:02;96924.03;;;-3.64;100.00
11198;BME280;5655;48.744;9.162;2022-12-17T14:34:43;96924.06;;;-3.39;100.00
11198;BME280;5655;48.744;9.162;2022-12-17T14:37:24;96922.25;;;-2.88;100.00
11198;BME280;5655;48.744;9.162;2022-12-17T14:39:51;96931.44;;;-2.96;100.00
11198;BME280;5655;48.744;9.162;2022-12-17T14:42:23;96930.66;;;-2.91;100.00
11198;BME280;5655;48.744;9.162;2022-12-17T14:52:38;96929.34;;;-2.99;100.00
11198;BME280;5655;48.744;9.162;2022-12-17T14:55:23;96935.34;;;-2.68;100.00
11198;BME280;5655;48.744;9.162;2022-12-17T14:57:50;96930.13;;;-2.88;100.00
11198;BME280;5655;48.744;9.162;2022-12-17T15:00:16;96936.69;;;-3.11;100.00
11198;BME280;5655;48.744;9.162;2022-12-17T15:02:43;96934.81;;;-3.26;100.00
11198;BME280;5655;48.744;9.162;2022-12-17T15:05:13;96934.84;;;-3.15;100.00
11198;BME280;5655;48.744;9.162;2022-12-17T15:07:40;96935.06;;;-3.32;100.00
11198;BME280;5655;48.744;9.162;2022-12-17T15:10:14;96935.34;;;-3.29;100.00
11198;BME280;5655;48.744;9.162;2022-12-17T15:12:41;96933.75;;;-3.40;100.00
11198;BME280;5655;48.744;9.162;2022-12-17T15:15:11;96936.38;;;-3.50;100.00
11198;BME280;5655;48.744;9.162;2022-12-17T15:17:37;96937.41;;;-3.41;100.00
11198;BME280;5655;48.744;9.162;2022-12-17T15:20:02;96941.06;;;-3.52;100.00
11198;BME280;5655;48.744;9.162;2022-12-17T15:22:28;96935.50;;;-3.71;100.00
11198;BME280;5655;48.744;9.162;2022-12-17T15:24:53;96947.00;;;-3.82;100.00
11198;BME280;5655;48.744;9.162;2022-12-17T15:27:18;96938.66;;;-3.74;100.00
11198;BME280;5655;48.744;9.162;2022-12-17T15:29:44;96949.91;;;-3.73;100.00
11198;BME280;5655;48.744;9.162;2022-12-17T15:32:18;96949.50;;;-3.25;100.00
11198;BME280;5655;48.744;9.162;2022-12-17T15:34:44;96940.91;;;-4.02;100.00
11198;BME280;5655;48.744;9.162;2022-12-17T15:37:09;96948.72;;;-4.07;100.00
11198;BME280;5655;48.744;9.162;2022-12-17T15:39:34;96947.66;;;-4.12;100.00
11198;BME280;5655;48.744;9.162;2022-12-17T15:42:00;96954.41;;;-4.21;100.00
11198;BME280;5655;48.744;9.162;2022-12-17T15:44:43;96950.19;;;-4.27;100.00
11198;BME280;5655;48.744;9.162;2022-12-17T15:47:09;96946.19;;;-4.39;100.00